createdAt,value
2019-05-11T00:00:02.551Z,3.87
2019-05-11T00:02:31.799Z,3.47
2019-05-11T00:05:01.010Z,4.00
2019-05-11T00:07:30.196Z,4.17
2019-05-11T00:09:59.392Z,4.13
2019-05-11T00:12:28.579Z,4.60
2019-05-11T00:14:57.752Z,4.30
2019-05-11T00:17:26.955Z,3.57
2019-05-11T00:19:56.249Z,3.43
2019-05-11T00:22:25.425Z,3.60
2019-05-11T00:24:54.624Z,3.70
2019-05-11T00:27:23.804Z,3.87
2019-05-11T00:29:52.996Z,4.00
2019-05-11T00:32:22.968Z,3.63
2019-05-11T00:34:52.306Z,3.87
2019-05-11T00:37:21.525Z,3.53
2019-05-11T00:39:50.737Z,3.90
2019-05-11T00:42:19.972Z,3.27
2019-05-11T00:44:49.131Z,3.17
2019-05-11T00:47:18.318Z,3.40
2019-05-11T00:49:47.519Z,4.13
2019-05-11T00:52:16.724Z,3.80
2019-05-11T00:54:45.992Z,3.20
2019-05-11T00:57:15.171Z,2.70
2019-05-11T00:59:44.389Z,2.17
2019-05-11T01:02:13.697Z,2.37
2019-05-11T01:04:42.895Z,2.00
2019-05-11T01:07:12.761Z,1.80
2019-05-11T01:09:41.995Z,1.90
2019-05-11T01:12:11.123Z,1.90
2019-05-11T01:14:40.339Z,2.07
2019-05-11T01:17:09.527Z,1.30
2019-05-11T01:19:39.052Z,1.40
2019-05-11T01:22:08.372Z,1.50
2019-05-11T01:24:37.560Z,1.50
2019-05-11T01:27:06.768Z,1.83
2019-05-11T01:29:35.961Z,2.23
2019-05-11T01:32:05.247Z,2.50
2019-05-11T01:34:34.523Z,2.50
2019-05-11T01:37:03.689Z,2.20
2019-05-11T01:39:32.908Z,1.83
2019-05-11T01:42:02.165Z,1.70
2019-05-11T01:44:31.291Z,2.07
2019-05-11T01:47:00.572Z,2.40
2019-05-11T01:49:29.779Z,2.03
2019-05-11T01:51:58.960Z,1.93
2019-05-11T01:54:28.193Z,2.47
2019-05-11T01:56:57.452Z,1.83
2019-05-11T01:59:26.647Z,1.73
2019-05-11T02:01:55.838Z,1.43
2019-05-11T02:04:25.040Z,1.23
2019-05-11T02:06:54.272Z,1.40
2019-05-11T02:09:23.479Z,1.30
2019-05-11T02:11:52.764Z,2.70
2019-05-11T02:14:21.960Z,2.13
2019-05-11T02:16:51.144Z,1.80
2019-05-11T02:19:20.346Z,2.10
2019-05-11T02:21:49.544Z,1.50
2019-05-11T02:24:18.715Z,2.30
2019-05-11T02:26:47.944Z,2.83
2019-05-11T02:29:17.147Z,2.83
2019-05-11T02:31:46.470Z,3.20
2019-05-11T02:34:15.647Z,2.63
2019-05-11T02:36:44.947Z,2.20
2019-05-11T02:39:14.141Z,2.40
2019-05-11T02:41:43.361Z,2.23
2019-05-11T02:44:12.559Z,2.77
2019-05-11T02:46:41.778Z,2.73
2019-05-11T02:49:10.971Z,2.20
2019-05-11T02:51:40.759Z,2.27
2019-05-11T02:54:11.533Z,2.37
2019-05-11T02:56:40.759Z,3.00
2019-05-11T02:59:09.944Z,2.60
2019-05-11T03:01:39.168Z,3.20
2019-05-11T03:04:08.414Z,3.07
2019-05-11T03:06:37.580Z,3.57
2019-05-11T03:09:07.774Z,3.33
2019-05-11T03:11:54.011Z,2.90
2019-05-11T03:14:07.853Z,2.80
2019-05-11T03:16:36.973Z,2.37
2019-05-11T03:19:06.249Z,2.80
2019-05-11T03:21:35.490Z,2.07
2019-05-11T03:24:04.765Z,2.23
2019-05-11T03:26:34.082Z,2.23
2019-05-11T03:29:03.281Z,1.80
2019-05-11T03:31:32.505Z,1.50
2019-05-11T03:34:01.745Z,2.20
2019-05-11T03:36:30.950Z,1.73
2019-05-11T03:39:00.147Z,1.50
2019-05-11T03:41:29.364Z,1.67
2019-05-11T03:43:58.579Z,2.40
2019-05-11T03:46:27.788Z,2.60
2019-05-11T03:48:56.988Z,3.27
2019-05-11T03:51:26.205Z,3.00
2019-05-11T03:53:55.387Z,2.20
2019-05-11T03:56:24.606Z,2.33
2019-05-11T03:58:53.821Z,2.90
2019-05-11T04:01:23.033Z,2.77
2019-05-11T04:03:52.222Z,2.50
2019-05-11T04:06:21.448Z,2.87
2019-05-11T04:08:50.669Z,2.90
2019-05-11T04:11:19.871Z,2.40
2019-05-11T04:13:49.080Z,2.47
2019-05-11T04:16:18.250Z,2.63
2019-05-11T04:18:47.549Z,2.50
2019-05-11T04:21:16.750Z,2.80
2019-05-11T04:23:45.953Z,3.23
2019-05-11T04:26:15.163Z,2.97
2019-05-11T04:28:44.381Z,3.70
2019-05-11T04:31:13.579Z,3.90
2019-05-11T04:33:42.891Z,4.00
2019-05-11T04:36:12.104Z,4.20
2019-05-11T04:38:41.302Z,5.03
2019-05-11T04:41:10.538Z,5.17
2019-05-11T04:43:39.745Z,5.30
2019-05-11T04:46:08.966Z,5.57
2019-05-11T04:48:38.194Z,5.67
2019-05-11T04:51:07.385Z,5.67
2019-05-11T04:53:36.604Z,5.20
2019-05-11T04:56:05.821Z,5.37
2019-05-11T04:58:35.026Z,5.57
2019-05-11T05:01:04.217Z,5.60
2019-05-11T05:03:40.994Z,5.47
2019-05-11T05:06:22.181Z,5.90
2019-05-11T05:08:35.162Z,5.37
2019-05-11T05:11:04.355Z,5.50
2019-05-11T05:13:33.580Z,5.47
2019-05-11T05:16:02.783Z,5.43
2019-05-11T05:18:31.981Z,5.00
2019-05-11T05:21:01.172Z,4.83
2019-05-11T05:23:30.368Z,4.93
2019-05-11T05:25:59.563Z,5.00
2019-05-11T05:28:28.877Z,4.97
2019-05-11T05:30:58.057Z,4.97
2019-05-11T05:33:27.269Z,4.00
2019-05-11T05:35:56.453Z,4.87
2019-05-11T05:38:25.686Z,5.27
2019-05-11T05:40:54.914Z,4.90
2019-05-11T05:43:28.251Z,4.97
2019-05-11T05:45:55.364Z,5.33
2019-05-11T05:48:24.569Z,5.20
2019-05-11T05:50:53.748Z,4.70
2019-05-11T05:53:22.961Z,5.30
2019-05-11T05:55:52.201Z,4.67
2019-05-11T05:58:21.426Z,4.60
2019-05-11T06:00:50.628Z,4.97
2019-05-11T06:03:19.837Z,4.43
2019-05-11T06:05:49.044Z,5.07
2019-05-11T06:08:18.217Z,4.20
2019-05-11T06:10:47.457Z,4.27
2019-05-11T06:13:16.644Z,4.07
2019-05-11T06:15:45.861Z,3.77
2019-05-11T06:18:15.079Z,3.73
2019-05-11T06:20:44.304Z,4.00
2019-05-11T06:23:13.526Z,3.70
2019-05-11T06:25:42.753Z,3.50
2019-05-11T06:28:11.968Z,4.27
2019-05-11T06:30:41.184Z,3.27
2019-05-11T06:33:10.402Z,2.57
2019-05-11T06:35:39.626Z,2.60
2019-05-11T06:38:08.809Z,2.90
2019-05-11T06:40:38.108Z,2.07
2019-05-11T06:43:07.388Z,3.47
2019-05-11T06:45:36.558Z,2.90
2019-05-11T06:48:05.781Z,2.83
2019-05-11T06:50:34.989Z,2.57
2019-05-11T06:53:04.212Z,2.90
2019-05-11T06:55:33.404Z,2.33
2019-05-11T06:58:02.614Z,2.60
2019-05-11T07:00:31.836Z,2.53
2019-05-11T07:03:01.009Z,2.77
2019-05-11T07:05:30.230Z,2.10
2019-05-11T07:07:59.357Z,1.63
2019-05-11T07:10:28.570Z,2.20
2019-05-11T07:12:57.756Z,1.70
2019-05-11T07:15:27.088Z,2.10
2019-05-11T07:17:56.301Z,2.33
2019-05-11T07:20:25.520Z,1.70
2019-05-11T07:22:55.538Z,1.90
2019-05-11T07:25:24.767Z,2.10
2019-05-11T07:27:54.033Z,1.50
2019-05-11T07:30:23.264Z,1.77
2019-05-11T07:32:52.465Z,2.10
2019-05-11T07:35:21.690Z,1.57
2019-05-11T07:37:50.880Z,1.97
2019-05-11T07:40:20.113Z,1.67
2019-05-11T07:42:49.303Z,1.60
2019-05-11T07:45:18.520Z,1.60
2019-05-11T07:47:48.602Z,1.60
2019-05-11T07:50:18.800Z,1.70
2019-05-11T07:52:48.373Z,2.03
2019-05-11T07:55:19.057Z,2.33
2019-05-11T07:57:48.407Z,1.70
2019-05-11T08:00:18.639Z,1.47
2019-05-11T08:02:48.233Z,1.97
2019-05-11T08:05:18.079Z,1.50
2019-05-11T08:07:48.219Z,1.53
2019-05-11T08:10:18.581Z,1.23
2019-05-11T08:12:48.318Z,2.83
2019-05-11T08:15:18.557Z,1.83
2019-05-11T08:17:48.832Z,1.43
2019-05-11T08:20:18.782Z,1.57
2019-05-11T08:22:48.292Z,1.70
2019-05-11T08:25:18.334Z,1.50
2019-05-11T08:27:48.549Z,1.60
2019-05-11T08:30:19.644Z,1.20
2019-05-11T08:32:49.437Z,1.83
2019-05-11T08:35:18.906Z,1.47
2019-05-11T08:37:48.144Z,1.43
2019-05-11T08:40:19.202Z,1.27
2019-05-11T08:42:48.451Z,1.57
2019-05-11T08:45:24.129Z,1.40
2019-05-11T08:47:48.670Z,1.40
2019-05-11T08:50:18.752Z,1.70
2019-05-11T08:52:48.133Z,1.10
2019-05-11T08:55:18.951Z,1.10
2019-05-11T08:57:48.478Z,1.27
2019-05-11T09:00:18.207Z,1.53
2019-05-11T09:02:50.500Z,1.57
2019-05-11T09:05:18.886Z,1.50
2019-05-11T09:07:48.556Z,1.57
2019-05-11T09:10:18.536Z,1.50
2019-05-11T09:12:48.869Z,1.80
2019-05-11T09:15:32.300Z,1.87
2019-05-11T09:17:49.160Z,2.40
2019-05-11T09:20:18.770Z,1.67
2019-05-11T09:22:48.630Z,1.57
2019-05-11T09:25:18.442Z,1.50
2019-05-11T09:27:48.446Z,1.40
2019-05-11T09:30:18.638Z,1.40
2019-05-11T09:32:47.988Z,1.57
2019-05-11T09:35:18.930Z,1.40
2019-05-11T09:37:48.546Z,1.57
2019-05-11T09:40:18.424Z,1.50
2019-05-11T09:42:48.018Z,1.50
2019-05-11T09:45:18.714Z,1.40
2019-05-11T09:47:48.155Z,1.47
2019-05-11T09:50:18.015Z,1.80
2019-05-11T09:52:49.004Z,1.50
2019-05-11T09:55:19.175Z,1.37
2019-05-11T09:57:48.833Z,1.57
2019-05-11T10:00:18.582Z,1.50
2019-05-11T10:02:48.749Z,1.57
2019-05-11T10:05:18.993Z,1.30
2019-05-11T10:07:48.609Z,1.40
2019-05-11T10:10:18.768Z,1.30
2019-05-11T10:12:48.953Z,1.27
2019-05-11T10:15:19.635Z,1.60
2019-05-11T10:17:48.834Z,1.30
2019-05-11T10:20:18.327Z,1.50
2019-05-11T10:22:48.613Z,1.47
2019-05-11T10:25:18.363Z,1.80
2019-05-11T10:27:48.842Z,1.87
2019-05-11T10:30:19.523Z,1.57
2019-05-11T10:32:48.995Z,1.50
2019-05-11T10:35:18.533Z,1.70
2019-05-11T10:37:47.938Z,1.10
2019-05-11T10:40:18.944Z,1.90
2019-05-11T10:42:48.488Z,1.20
2019-05-11T10:45:18.084Z,1.20
2019-05-11T10:47:49.012Z,1.40
2019-05-11T10:50:18.844Z,1.70
2019-05-11T10:52:48.474Z,1.40
2019-05-11T10:55:19.364Z,1.33
2019-05-11T10:57:48.920Z,1.43
2019-05-11T11:00:18.800Z,1.27
2019-05-11T11:02:48.033Z,1.20
2019-05-11T11:05:18.747Z,1.37
2019-05-11T11:07:48.530Z,1.60
2019-05-11T11:10:18.329Z,1.90
2019-05-11T11:12:49.056Z,1.50
2019-05-11T11:15:18.522Z,1.40
2019-05-11T11:17:48.598Z,1.67
2019-05-11T11:20:18.807Z,1.27
2019-05-11T11:22:48.353Z,1.10
2019-05-11T11:25:18.095Z,1.40
2019-05-11T11:27:48.597Z,1.63
2019-05-11T11:30:20.321Z,1.33
2019-05-11T11:32:49.997Z,1.47
2019-05-11T11:35:19.494Z,1.50
2019-05-11T11:37:49.000Z,1.53
2019-05-11T11:40:18.873Z,1.17
2019-05-11T11:42:48.144Z,1.57
2019-05-11T11:45:18.303Z,1.47
2019-05-11T11:47:49.409Z,1.30
2019-05-11T11:50:19.331Z,1.40
2019-05-11T11:52:49.009Z,1.47
2019-05-11T11:55:18.775Z,1.40
2019-05-11T11:57:50.301Z,1.23
2019-05-11T12:00:20.298Z,1.60
2019-05-11T12:02:50.068Z,1.50
2019-05-11T12:05:19.835Z,1.30
2019-05-11T12:07:49.596Z,2.00
2019-05-11T12:10:19.120Z,1.53
2019-05-11T12:12:48.672Z,1.70
2019-05-11T12:15:18.043Z,1.20
2019-05-11T12:17:48.288Z,1.80
2019-05-11T12:20:18.296Z,1.37
2019-05-11T12:22:48.097Z,1.50
2019-05-11T12:25:18.618Z,1.30
2019-05-11T12:27:49.123Z,1.33
2019-05-11T12:30:19.160Z,1.50
2019-05-11T12:32:49.686Z,1.50
2019-05-11T12:35:19.428Z,1.47
2019-05-11T12:37:48.697Z,1.50
2019-05-11T12:40:18.214Z,1.63
2019-05-11T12:42:48.873Z,1.57
2019-05-11T12:45:21.835Z,1.73
2019-05-11T12:47:51.116Z,1.53
2019-05-11T12:50:21.064Z,1.87
2019-05-11T12:52:50.247Z,1.80
2019-05-11T12:55:19.694Z,1.73
2019-05-11T12:57:48.996Z,1.40
2019-05-11T13:00:18.974Z,1.90
2019-05-11T13:02:48.614Z,1.70
2019-05-11T13:05:18.189Z,1.80
2019-05-11T13:07:48.196Z,1.50
2019-05-11T13:10:17.978Z,1.70
2019-05-11T13:12:49.338Z,1.40
2019-05-11T13:15:18.624Z,1.67
2019-05-11T13:17:49.187Z,2.07
2019-05-11T13:20:18.624Z,1.57
2019-05-11T13:22:48.835Z,1.40
2019-05-11T13:25:18.256Z,1.20
2019-05-11T13:27:49.150Z,1.60
2019-05-11T13:30:18.791Z,1.67
2019-05-11T13:32:48.958Z,1.23
2019-05-11T13:35:18.525Z,1.23
2019-05-11T13:37:48.164Z,1.30
2019-05-11T13:40:18.449Z,1.40
2019-05-11T13:42:49.023Z,1.60
2019-05-11T13:45:18.616Z,1.20
2019-05-11T13:47:55.294Z,1.53
2019-05-11T13:50:19.245Z,1.40
2019-05-11T13:52:48.470Z,1.33
2019-05-11T13:55:18.213Z,2.17
2019-05-11T13:57:48.537Z,1.70
2019-05-11T14:00:18.246Z,1.60
2019-05-11T14:02:48.511Z,1.10
2019-05-11T14:05:18.204Z,0.90
2019-05-11T14:07:48.236Z,1.17
2019-05-11T14:10:18.256Z,1.40
2019-05-11T14:12:47.823Z,1.43
2019-05-11T14:15:18.842Z,1.83
2019-05-11T14:17:48.690Z,2.00
2019-05-11T14:20:18.912Z,1.80
2019-05-11T14:22:48.393Z,1.30
2019-05-11T14:25:18.533Z,1.50
2019-05-11T14:27:48.135Z,1.30
2019-05-11T14:30:19.037Z,2.00
2019-05-11T14:32:48.538Z,1.53
2019-05-11T14:35:18.796Z,1.97
2019-05-11T14:37:48.780Z,1.70
2019-05-11T14:40:18.066Z,1.70
2019-05-11T14:42:48.991Z,1.63
2019-05-11T14:45:18.743Z,1.60
2019-05-11T14:47:48.185Z,1.53
2019-05-11T14:50:18.867Z,1.43
2019-05-11T14:52:49.066Z,1.50
2019-05-11T14:55:18.697Z,1.43
2019-05-11T14:57:48.566Z,1.60
2019-05-11T15:00:18.753Z,2.10
2019-05-11T15:02:49.681Z,1.70
2019-05-11T15:05:20.221Z,1.97
2019-05-11T15:07:52.370Z,1.83
2019-05-11T15:10:20.665Z,1.67
2019-05-11T15:12:49.880Z,1.60
2019-05-11T15:15:19.166Z,1.40
2019-05-11T15:17:49.266Z,1.87
2019-05-11T15:20:19.032Z,1.83
2019-05-11T15:22:48.939Z,2.17
2019-05-11T15:25:19.635Z,1.60
2019-05-11T15:27:49.100Z,1.77
2019-05-11T15:30:18.720Z,1.70
2019-05-11T15:32:48.446Z,2.00
2019-05-11T15:35:18.709Z,1.53
2019-05-11T15:37:48.379Z,1.63
2019-05-11T15:40:19.032Z,1.60
2019-05-11T15:42:48.796Z,1.23
2019-05-11T15:45:20.059Z,1.50
2019-05-11T15:47:49.325Z,1.40
2019-05-11T15:50:19.340Z,2.00
2019-05-11T15:52:49.060Z,1.60
2019-05-11T15:55:19.273Z,1.53
2019-05-11T15:57:48.639Z,1.63
2019-05-11T16:00:18.503Z,1.53
2019-05-11T16:02:49.061Z,1.30
2019-05-11T16:05:18.949Z,1.50
2019-05-11T16:07:49.296Z,1.60
2019-05-11T16:10:19.819Z,1.50
2019-05-11T16:12:49.239Z,1.70
2019-05-11T16:15:19.624Z,1.80
2019-05-11T16:17:49.804Z,1.20
2019-05-11T16:20:19.126Z,1.33
2019-05-11T16:22:48.370Z,1.47
2019-05-11T16:25:19.649Z,1.23
2019-05-11T16:27:49.133Z,0.90
2019-05-11T16:30:21.504Z,1.40
2019-05-11T16:32:50.313Z,1.33
2019-05-11T16:35:19.525Z,1.50
2019-05-11T16:37:48.942Z,1.40
2019-05-11T16:40:20.738Z,1.47
2019-05-11T16:42:49.518Z,1.70
2019-05-11T16:45:22.959Z,1.50
2019-05-11T16:47:50.585Z,1.40
2019-05-11T16:50:19.780Z,1.43
2019-05-11T16:52:49.092Z,1.40
2019-05-11T16:55:18.673Z,1.70
2019-05-11T16:57:48.722Z,1.83
2019-05-11T17:00:18.215Z,1.30
2019-05-11T17:02:49.131Z,1.70
2019-05-11T17:05:26.272Z,1.37
2019-05-11T17:07:49.233Z,1.30
2019-05-11T17:10:18.424Z,1.63
2019-05-11T17:12:48.670Z,1.50
2019-05-11T17:15:18.744Z,2.10
2019-05-11T17:17:48.828Z,1.60
2019-05-11T17:20:19.024Z,1.40
2019-05-11T17:22:48.595Z,1.60
2019-05-11T17:25:19.381Z,1.47
2019-05-11T17:27:49.164Z,1.60
2019-05-11T17:30:19.533Z,1.30
2019-05-11T17:32:49.685Z,1.60
2019-05-11T17:35:19.264Z,1.67
2019-05-11T17:37:48.847Z,1.93
2019-05-11T17:40:22.743Z,1.77
2019-05-11T17:42:53.351Z,1.90
2019-05-11T17:45:20.441Z,1.63
2019-05-11T17:47:49.686Z,1.57
2019-05-11T17:50:19.327Z,1.67
2019-05-11T17:52:48.659Z,1.30
2019-05-11T17:55:18.455Z,1.53
2019-05-11T17:57:49.177Z,1.77
2019-05-11T18:00:20.084Z,1.60
2019-05-11T18:02:49.628Z,1.90
2019-05-11T18:05:18.819Z,1.73
2019-05-11T18:07:48.070Z,1.43
2019-05-11T18:10:18.241Z,1.70
2019-05-11T18:12:48.592Z,2.07
2019-05-11T18:15:18.805Z,1.40
2019-05-11T18:17:48.604Z,1.40
2019-05-11T18:20:21.430Z,1.40
2019-05-11T18:22:49.392Z,1.53
2019-05-11T18:25:18.748Z,1.60
2019-05-11T18:27:48.401Z,1.40
2019-05-11T18:30:18.196Z,1.80
2019-05-11T18:32:48.916Z,1.40
2019-05-11T18:35:19.448Z,2.67
2019-05-11T18:37:49.086Z,1.57
2019-05-11T18:40:18.876Z,1.60
2019-05-11T18:42:48.946Z,1.30
2019-05-11T18:45:19.054Z,1.60
2019-05-11T18:47:49.046Z,1.37
2019-05-11T18:50:29.805Z,1.40
2019-05-11T18:52:49.401Z,1.10
2019-05-11T18:55:19.195Z,1.60
2019-05-11T18:57:48.940Z,1.70
2019-05-11T19:00:19.286Z,1.70
2019-05-11T19:02:49.385Z,1.40
2019-05-11T19:05:18.923Z,1.40
2019-05-11T19:07:48.534Z,1.40
2019-05-11T19:10:17.688Z,1.60
2019-05-11T19:12:48.820Z,1.63
2019-05-11T19:15:18.694Z,1.60
2019-05-11T19:17:49.286Z,1.50
2019-05-11T19:20:18.747Z,1.70
2019-05-11T19:22:47.997Z,1.43
2019-05-11T19:25:18.169Z,1.80
2019-05-11T19:27:50.265Z,1.60
2019-05-11T19:30:18.696Z,1.83
2019-05-11T19:32:48.672Z,1.50
2019-05-11T19:35:21.291Z,1.40
2019-05-11T19:37:49.214Z,1.80
2019-05-11T19:40:18.409Z,1.40
2019-05-11T19:42:54.798Z,1.50
2019-05-11T19:45:24.317Z,1.47
2019-05-11T19:47:53.544Z,1.80
2019-05-11T19:50:22.854Z,1.97
2019-05-11T19:52:52.048Z,2.00
2019-05-11T19:55:21.263Z,1.37
2019-05-11T19:57:50.497Z,1.50
2019-05-11T20:00:20.518Z,1.83
2019-05-11T20:02:49.833Z,1.83
2019-05-11T20:05:19.044Z,1.73
2019-05-11T20:07:48.833Z,1.90
2019-05-11T20:10:19.054Z,1.60
2019-05-11T20:12:48.725Z,1.50
2019-05-11T20:15:18.805Z,1.60
2019-05-11T20:17:48.970Z,1.80
2019-05-11T20:20:18.875Z,2.07
2019-05-11T20:22:48.768Z,1.77
2019-05-11T20:25:19.170Z,1.90
2019-05-11T20:27:49.397Z,1.80
2019-05-11T20:30:19.249Z,2.50
2019-05-11T20:32:49.173Z,1.67
2019-05-11T20:35:18.994Z,1.63
2019-05-11T20:37:48.291Z,1.70
2019-05-11T20:40:19.322Z,2.40
2019-05-11T20:42:48.804Z,3.80
2019-05-11T20:45:18.737Z,2.17
2019-05-11T20:47:48.971Z,2.10
2019-05-11T20:50:18.870Z,1.63
2019-05-11T20:52:48.819Z,1.57
2019-05-11T20:55:18.492Z,1.60
2019-05-11T20:57:48.425Z,1.70
2019-05-11T21:00:18.755Z,1.30
2019-05-11T21:02:48.899Z,1.50
2019-05-11T21:05:18.573Z,2.00
2019-05-11T21:07:47.948Z,2.13
2019-05-11T21:10:17.555Z,1.80
2019-05-11T21:12:46.808Z,1.40
2019-05-11T21:15:16.722Z,2.00
2019-05-11T21:17:50.177Z,1.50
2019-05-11T21:20:18.131Z,1.50
2019-05-11T21:22:48.730Z,1.30
2019-05-11T21:25:18.340Z,1.30
2019-05-11T21:27:48.655Z,1.70
2019-05-11T21:30:18.762Z,1.30
2019-05-11T21:32:48.050Z,1.67
2019-05-11T21:35:19.208Z,1.53
2019-05-11T21:37:48.743Z,1.57
2019-05-11T21:40:18.177Z,1.77
2019-05-11T21:42:47.681Z,1.40
2019-05-11T21:45:18.302Z,1.67
2019-05-11T21:47:49.034Z,1.70
2019-05-11T21:50:19.171Z,1.60
2019-05-11T21:52:48.595Z,1.50
2019-05-11T21:55:17.813Z,1.63
2019-05-11T21:57:49.473Z,1.50
2019-05-11T22:00:19.320Z,1.53
2019-05-11T22:02:48.717Z,1.60
2019-05-11T22:05:20.705Z,1.57
2019-05-11T22:07:49.124Z,1.63
2019-05-11T22:10:18.379Z,1.60
2019-05-11T22:12:49.049Z,1.80
2019-05-11T22:15:18.510Z,1.57
2019-05-11T22:17:48.144Z,2.00
2019-05-11T22:20:18.427Z,1.77
2019-05-11T22:22:47.858Z,1.50
2019-05-11T22:25:18.247Z,1.67
2019-05-11T22:27:48.812Z,1.70
2019-05-11T22:30:18.669Z,1.53
2019-05-11T22:32:48.152Z,1.70
2019-05-11T22:35:18.362Z,1.90
2019-05-11T22:37:49.013Z,2.20
2019-05-11T22:40:18.464Z,1.90
2019-05-11T22:42:47.705Z,1.53
2019-05-11T22:45:18.746Z,1.53
2019-05-11T22:47:48.136Z,2.97
2019-05-11T22:50:18.582Z,1.73
2019-05-11T22:52:48.494Z,1.40
2019-05-11T22:55:18.840Z,2.00
2019-05-11T22:57:48.610Z,1.33
2019-05-11T23:00:21.751Z,1.80
2019-05-11T23:02:51.026Z,1.50
2019-05-11T23:05:20.248Z,1.90
2019-05-11T23:07:49.440Z,1.60
2019-05-11T23:10:18.616Z,2.47
2019-05-11T23:12:48.256Z,1.53
2019-05-11T23:15:19.247Z,1.40
2019-05-11T23:17:48.464Z,1.83
2019-05-11T23:20:17.736Z,1.40
2019-05-11T23:22:57.625Z,1.20
2019-05-11T23:25:20.754Z,1.60
2019-05-11T23:27:49.984Z,1.60
2019-05-11T23:30:20.285Z,1.40
2019-05-11T23:32:49.983Z,1.53
2019-05-11T23:35:19.318Z,1.60
2019-05-11T23:37:49.785Z,1.50
2019-05-11T23:40:21.162Z,1.13
2019-05-11T23:42:50.406Z,1.67
2019-05-11T23:45:19.693Z,2.20
2019-05-11T23:47:49.279Z,1.40
2019-05-11T23:50:19.258Z,2.20
2019-05-11T23:53:05.117Z,2.57
2019-05-11T23:55:19.900Z,2.63
2019-05-11T23:57:49.245Z,2.67
